Airport Name : Jackson Co Reynolds Fld

Other Name : Reynolds Fld

ICAO : KJXN

IATA : JXN

FAA : JXN

Latitude : 42.259785

Longitude : -84.459404

Country : United States

Local Date and Time : 27 Nov 2020 03:39

 

TAF (Terminal Aerodrome Forecast)

KJXN 270530Z 2706/2806 20005KT P6SM SKC FM270800 21004KT P6SM BKN015 FM272200 24007KT P6SM OVC025 FM280000 27005KT P6SM SKC

 

METAR (METeorological Aerodrome Report)

KJXN 270756Z AUTO 22007KT 10SM OVC019 05/02 A3007 RMK AO2 SLP188 T00500017

KJXN 270656Z AUTO 23007KT 10SM OVC016 05/02 A3007 RMK AO2 SLP190 T00500017

KJXN 270556Z AUTO 23010G18KT 10SM OVC015 05/02 A3007 RMK AO2 SLP189 T00500022 10056 20022 53008

KJXN 270456Z AUTO 23006KT 10SM OVC017 04/02 A3005 RMK AO2 SLP184 T00440017 401000022

To Charter a Jet Click here.